Time;durP1;ratioP1;P1;durP2;ratioP2;P2;SDS_P1;SDS_P2;PMS_P1;PMS_P2;Temp;Humidity;BMP_temperature;BMP_pressure;BME280_temperature;BME280_humidity;BME280_pressure;Samples;Min_cycle;Max_cycle;Signal;HPM_P1;HPM_P2
2023/12/13 14:56:09;;;;;;;17.43;10.40;;;;;;;7.92;100.00;99749.19;5308922;27;20404;-67
2023/12/13 14:58:40;;;;;;;12.97;8.33;;;;;;;7.91;100.00;99760.53;5302427;28;20506;-68
2023/12/13 15:01:11;;;;;;;12.00;7.70;;;;;;;7.89;100.00;99765.03;5285392;28;20067;-68
2023/12/13 15:03:43;;;;;;;14.07;8.10;;;;;;;7.83;100.00;99766.28;5291887;28;20103;-66
2023/12/13 15:06:14;;;;;;;12.03;7.23;;;;;;;7.84;100.00;99754.91;5298041;28;20033;-66
2023/12/13 15:08:45;;;;;;;10.47;8.03;;;;;;;7.80;100.00;99772.50;5288443;28;20136;-67
2023/12/13 15:11:17;;;;;;;14.03;7.90;;;;;;;7.79;100.00;99783.03;5294061;28;20020;-68
2023/12/13 15:13:48;;;;;;;10.03;7.03;;;;;;;7.95;100.00;99781.13;5296124;28;20039;-67
2023/12/13 15:16:19;;;;;;;8.70;6.97;;;;;;;7.85;100.00;99790.47;5291821;28;20067;-67
2023/12/13 15:18:51;;;;;;;15.07;7.73;;;;;;;7.89;100.00;99797.16;5290519;28;20040;-70
2023/12/13 15:21:22;;;;;;;11.73;7.00;;;;;;;7.62;100.00;99787.59;5288304;28;20032;-68
2023/12/13 15:23:53;;;;;;;11.97;7.00;;;;;;;7.82;100.00;99796.72;5299858;28;20055;-66
2023/12/13 15:26:25;;;;;;;9.90;7.60;;;;;;;7.73;100.00;99797.34;5284206;28;20105;-67
2023/12/13 15:28:56;;;;;;;7.20;5.70;;;;;;;7.68;100.00;99812.44;5299956;28;20028;-66
2023/12/13 15:31:27;;;;;;;13.00;7.67;;;;;;;7.58;100.00;99805.19;5279044;28;20497;-67
2023/12/13 15:33:59;;;;;;;16.43;9.77;;;;;;;7.63;100.00;99807.50;5304983;28;20064;-70
2023/12/13 15:36:30;;;;;;;16.03;9.40;;;;;;;7.68;100.00;99813.25;5282982;28;20039;-70
2023/12/13 15:39:03;;;;;;;15.07;9.70;;;;;;;7.63;100.00;99813.56;5299338;28;20024;-69
2023/12/13 15:41:35;;;;;;;13.37;8.83;;;;;;;7.84;100.00;99815.69;5288493;28;20094;-70
2023/12/13 15:44:07;;;;;;;13.57;9.27;;;;;;;8.01;100.00;99831.19;5273344;28;20110;-68
2023/12/13 15:46:38;;;;;;;11.97;7.27;;;;;;;7.91;100.00;99831.78;5281291;28;20060;-68
2023/12/13 15:49:10;;;;;;;18.57;8.70;;;;;;;7.94;100.00;99838.56;5283154;28;20070;-68
2023/12/13 15:51:42;;;;;;;12.83;8.37;;;;;;;7.84;100.00;99830.50;5301791;28;20384;-77
2023/12/13 15:54:13;;;;;;;16.37;9.13;;;;;;;7.93;100.00;99845.56;5288982;28;20442;-70
2023/12/13 15:56:44;;;;;;;14.83;9.90;;;;;;;7.72;100.00;99832.97;5299317;28;20036;-71
2023/12/13 15:59:16;;;;;;;13.53;8.90;;;;;;;7.83;100.00;99849.69;5303197;28;20067;-75
2023/12/13 16:01:47;;;;;;;15.13;9.03;;;;;;;7.80;100.00;99850.72;5286261;28;20430;-70
2023/12/13 16:04:18;;;;;;;11.70;9.37;;;;;;;7.80;100.00;99866.34;5278212;28;20035;-69
2023/12/13 16:06:49;;;;;;;19.63;11.77;;;;;;;7.83;100.00;99865.34;5285462;28;20020;-69
2023/12/13 16:09:21;;;;;;;19.27;12.10;;;;;;;7.81;100.00;99869.81;5270277;28;20033;-73
2023/12/13 16:11:52;;;;;;;20.60;15.23;;;;;;;7.89;100.00;99870.16;5256230;28;20123;-73
2023/12/13 16:14:24;;;;;;;24.23;17.47;;;;;;;7.79;100.00;99874.28;5272890;28;20045;-71
2023/12/13 16:16:56;;;;;;;23.97;17.57;;;;;;;7.92;100.00;99884.78;5264466;28;20071;-73
2023/12/13 16:19:28;;;;;;;23.03;15.97;;;;;;;7.84;100.00;99873.06;5280855;28;20482;-70
2023/12/13 16:21:59;;;;;;;21.63;15.33;;;;;;;8.00;100.00;99885.09;5277739;28;20530;-68
2023/12/13 16:24:30;;;;;;;14.93;13.33;;;;;;;7.88;100.00;99865.88;5265959;28;20021;-73
2023/12/13 16:27:02;;;;;;;21.53;12.10;;;;;;;8.03;100.00;99886.69;5301563;28;20034;-73
2023/12/13 16:29:34;;;;;;;13.83;11.20;;;;;;;8.02;100.00;99895.44;5267931;28;20059;-73
2023/12/13 16:32:05;;;;;;;15.53;11.60;;;;;;;8.11;100.00;99895.69;5268222;28;20142;-71
2023/12/13 16:34:36;;;;;;;20.87;13.40;;;;;;;7.93;100.00;99896.84;5268669;28;20029;-70
2023/12/13 16:37:08;;;;;;;17.87;11.83;;;;;;;8.16;100.00;99910.19;5279323;28;20032;-70
2023/12/13 16:39:40;;;;;;;18.00;12.20;;;;;;;8.11;100.00;99907.88;5276729;28;20031;-71
2023/12/13 16:42:11;;;;;;;18.23;12.57;;;;;;;8.07;100.00;99917.69;5276367;28;20089;-71
2023/12/13 16:44:42;;;;;;;17.90;11.37;;;;;;;8.16;100.00;99918.84;5271133;28;20073;-70
2023/12/13 16:47:13;;;;;;;14.53;12.70;;;;;;;8.06;100.00;99925.59;5288904;28;20024;-71
2023/12/13 16:49:48;;;;;;;17.47;12.60;;;;;;;8.08;100.00;99921.13;5284617;28;20043;-71
2023/12/13 16:52:20;;;;;;;16.50;12.07;;;;;;;8.08;100.00;99924.56;5265412;28;20114;-71
2023/12/13 16:54:51;;;;;;;16.93;12.70;;;;;;;7.96;100.00;99936.63;5281953;28;20475;-70
2023/12/13 16:57:22;;;;;;;14.00;11.47;;;;;;;8.03;100.00;99933.63;5289473;28;20082;-70
2023/12/13 16:59:55;;;;;;;26.53;14.23;;;;;;;8.05;100.00;99950.00;5318246;27;20059;-70
2023/12/13 17:02:26;;;;;;;21.53;12.80;;;;;;;8.14;100.00;99953.78;5262666;28;20025;-69
2023/12/13 17:04:58;;;;;;;17.07;12.07;;;;;;;8.09;100.00;99956.69;5278790;28;20485;-71
2023/12/13 17:07:31;;;;;;;15.13;11.40;;;;;;;8.02;100.00;99958.88;5282339;28;20033;-70
2023/12/13 17:10:03;;;;;;;13.90;10.83;;;;;;;7.95;100.00;99966.25;5278943;28;20029;-69
2023/12/13 17:12:35;;;;;;;15.30;11.23;;;;;;;7.99;100.00;99962.47;5280784;28;20134;-70
2023/12/13 17:15:08;;;;;;;18.30;11.70;;;;;;;7.99;100.00;99961.66;5274636;28;20115;-70
2023/12/13 17:17:39;;;;;;;15.10;11.80;;;;;;;8.06;100.00;99980.38;5273342;28;20028;-69
2023/12/13 17:20:11;;;;;;;15.33;13.03;;;;;;;8.04;100.00;99971.81;5279512;28;20489;-70
2023/12/13 17:22:42;;;;;;;14.77;12.53;;;;;;;8.17;100.00;99985.72;5260242;28;20033;-70
2023/12/13 17:25:15;;;;;;;19.37;12.80;;;;;;;8.05;100.00;99983.91;5266263;28;20025;-70
2023/12/13 17:27:46;;;;;;;19.63;14.70;;;;;;;8.18;100.00;99997.84;5264313;28;20032;-68
2023/12/13 17:30:17;;;;;;;22.20;17.73;;;;;;;8.06;100.00;100001.22;5266223;28;20036;-69
2023/12/13 17:32:48;;;;;;;24.83;20.73;;;;;;;8.12;100.00;100011.25;5268162;28;20111;-70
2023/12/13 17:35:20;;;;;;;19.07;15.63;;;;;;;8.14;100.00;100004.19;5269124;28;20374;-70
2023/12/13 17:37:52;;;;;;;19.60;14.20;;;;;;;8.09;100.00;100016.69;5257446;28;20033;-70
2023/12/13 17:40:23;;;;;;;19.93;13.20;;;;;;;8.20;100.00;100013.41;5268130;28;20104;-71
2023/12/13 17:42:54;;;;;;;19.17;12.77;;;;;;;8.11;100.00;100033.06;5271775;28;20040;-69
2023/12/13 17:45:26;;;;;;;20.47;12.07;;;;;;;8.21;100.00;100028.94;5257061;28;20024;-69
2023/12/13 17:47:58;;;;;;;21.30;13.33;;;;;;;8.17;100.00;100032.69;5270405;28;20099;-70
2023/12/13 17:50:29;;;;;;;16.43;11.37;;;;;;;8.17;100.00;100040.50;5271031;28;20102;-70
2023/12/13 17:53:01;;;;;;;13.17;11.83;;;;;;;8.15;100.00;100038.94;5269537;28;20032;-67
2023/12/13 17:55:35;;;;;;;20.13;12.43;;;;;;;8.25;100.00;100052.22;5269735;28;20107;-69
2023/12/13 17:58:06;;;;;;;17.40;11.60;;;;;;;8.24;100.00;100054.00;5265697;28;20043;-70
2023/12/13 18:00:37;;;;;;;15.73;12.23;;;;;;;8.20;100.00;100061.19;5276222;28;20025;-68
2023/12/13 18:03:08;;;;;;;19.17;12.43;;;;;;;8.17;100.00;100058.75;5278895;28;20063;-70
2023/12/13 18:05:40;;;;;;;23.37;13.00;;;;;;;8.08;100.00;100067.19;5279906;28;20024;-69
2023/12/13 18:08:11;;;;;;;21.03;14.00;;;;;;;8.08;100.00;100072.41;5284901;28;20036;-70
2023/12/13 18:10:42;;;;;;;18.77;12.97;;;;;;;8.04;100.00;100070.91;5262528;28;20066;-71
2023/12/13 18:13:14;;;;;;;19.27;13.00;;;;;;;8.10;100.00;100083.53;5280891;28;20032;-71
2023/12/13 18:15:47;;;;;;;21.87;14.00;;;;;;;8.15;100.00;100078.06;5263469;28;20020;-71
2023/12/13 18:18:19;;;;;;;19.43;13.83;;;;;;;8.08;100.00;100090.66;5271278;28;20486;-73
2023/12/13 18:20:50;;;;;;;29.97;25.17;;;;;;;8.12;100.00;100094.72;5275426;28;20024;-72
2023/12/13 18:23:21;;;;;;;33.30;24.20;;;;;;;8.04;100.00;100094.38;5273345;28;20033;-72
2023/12/13 18:25:56;;;;;;;22.90;18.87;;;;;;;8.21;100.00;100104.59;5274995;28;20047;-71
2023/12/13 18:28:27;;;;;;;20.60;16.33;;;;;;;8.23;100.00;100107.97;5314643;27;20021;-71
2023/12/13 18:30:58;;;;;;;22.77;18.23;;;;;;;8.14;100.00;100116.34;5284889;28;20025;-71
2023/12/13 18:33:29;;;;;;;24.27;16.83;;;;;;;8.10;100.00;100130.50;5273607;28;20475;-72
2023/12/13 18:36:01;;;;;;;29.37;20.63;;;;;;;8.17;100.00;100123.97;5275276;28;20169;-71
2023/12/13 18:38:32;;;;;;;31.17;21.73;;;;;;;8.13;100.00;100132.94;5311570;27;20035;-71
2023/12/13 18:41:04;;;;;;;22.57;20.00;;;;;;;8.11;100.00;100140.00;5280859;28;20154;-71
2023/12/13 18:43:35;;;;;;;22.83;18.53;;;;;;;8.11;100.00;100134.78;5277602;28;20025;-72
2023/12/13 18:46:06;;;;;;;25.00;18.53;;;;;;;8.12;100.00;100141.69;5265875;28;20031;-68
2023/12/13 18:48:38;;;;;;;21.20;17.53;;;;;;;8.07;100.00;100144.56;5276973;28;20492;-70
2023/12/13 18:51:09;;;;;;;23.17;18.90;;;;;;;7.99;100.00;100152.84;5272525;28;20029;-71
2023/12/13 18:53:41;;;;;;;21.73;15.60;;;;;;;8.08;100.00;100161.06;5270070;28;20036;-70
2023/12/13 18:56:12;;;;;;;19.70;17.37;;;;;;;7.92;100.00;100168.97;5275526;28;20067;-75
2023/12/13 18:58:44;;;;;;;23.13;16.43;;;;;;;8.04;100.00;100164.78;5304222;28;20029;-73
2023/12/13 19:01:15;;;;;;;19.07;14.57;;;;;;;8.13;100.00;100185.09;5273728;28;20028;-74
2023/12/13 19:03:47;;;;;;;21.97;14.80;;;;;;;8.06;100.00;100186.41;5279296;28;20062;-75
2023/12/13 19:06:18;;;;;;;19.33;14.87;;;;;;;7.98;100.00;100186.84;5277072;28;20029;-74
2023/12/13 19:08:50;;;;;;;17.30;14.20;;;;;;;8.08;100.00;100187.16;5276640;28;20040;-73
2023/12/13 19:11:21;;;;;;;17.33;15.47;;;;;;;7.99;100.00;100181.53;5260189;28;20029;-79
2023/12/13 19:13:52;;;;;;;15.93;13.73;;;;;;;7.95;100.00;100187.88;5272409;28;20029;-80
2023/12/13 19:16:28;;;;;;;18.13;14.20;;;;;;;8.04;100.00;100190.84;5260353;28;20490;-66
2023/12/13 19:18:59;;;;;;;17.13;14.63;;;;;;;8.10;100.00;100200.91;5257756;28;20025;-70
2023/12/13 19:21:31;;;;;;;19.90;14.87;;;;;;;8.09;100.00;100210.53;5262327;28;20090;-67
2023/12/13 19:24:02;;;;;;;19.73;15.93;;;;;;;8.08;100.00;100208.81;5271597;28;20103;-69
2023/12/13 19:26:34;;;;;;;20.50;15.20;;;;;;;8.01;100.00;100209.31;5260039;28;20048;-70
2023/12/13 19:29:06;;;;;;;21.23;16.07;;;;;;;8.06;100.00;100222.91;5270037;28;20040;-70
2023/12/13 19:31:37;;;;;;;24.10;17.07;;;;;;;8.03;100.00;100231.75;5260351;28;20021;-69
2023/12/13 19:34:09;;;;;;;20.97;16.50;;;;;;;7.90;100.00;100226.41;5294284;28;20017;-70
2023/12/13 19:36:41;;;;;;;23.13;17.40;;;;;;;8.09;100.00;100238.38;5247573;28;20048;-70
2023/12/13 19:39:12;;;;;;;29.13;19.53;;;;;;;8.03;100.00;100238.75;5266982;28;20047;-72
2023/12/13 19:41:44;;;;;;;26.30;20.43;;;;;;;7.90;100.00;100242.06;5267374;28;20382;-72
2023/12/13 19:44:15;;;;;;;26.70;20.37;;;;;;;7.99;100.00;100246.72;5269368;28;20593;-72
2023/12/13 19:46:46;;;;;;;28.53;21.20;;;;;;;8.03;100.00;100257.00;5274951;28;20071;-71
2023/12/13 19:49:18;;;;;;;25.37;20.67;;;;;;;8.05;100.00;100260.34;5278587;28;20025;-72
2023/12/13 19:51:49;;;;;;;28.43;22.83;;;;;;;8.01;100.00;100258.84;5267172;28;20035;-71
2023/12/13 19:54:20;;;;;;;30.30;21.53;;;;;;;7.98;100.00;100250.28;5269666;28;20049;-72
2023/12/13 19:56:52;;;;;;;27.93;21.43;;;;;;;7.96;100.00;100262.56;5271775;28;20047;-73
2023/12/13 19:59:23;;;;;;;33.47;23.27;;;;;;;7.89;100.00;100263.03;5275780;28;20025;-72
2023/12/13 20:01:54;;;;;;;29.37;23.77;;;;;;;7.81;100.00;100253.00;5277875;28;20037;-71
2023/12/13 20:04:26;;;;;;;33.33;23.97;;;;;;;7.89;100.00;100266.44;5278813;28;20072;-73
2023/12/13 20:06:57;;;;;;;35.53;24.17;;;;;;;7.95;100.00;100283.50;5276828;28;20467;-73
2023/12/13 20:09:28;;;;;;;38.33;25.47;;;;;;;8.04;100.00;100285.59;5276612;28;20024;-73
2023/12/13 20:12:00;;;;;;;36.20;25.70;;;;;;;7.98;100.00;100301.56;5279316;28;20063;-71
2023/12/13 20:14:31;;;;;;;35.00;26.53;;;;;;;7.96;100.00;100301.66;5276907;28;20028;-72
2023/12/13 20:17:03;;;;;;;37.53;27.47;;;;;;;7.89;100.00;100296.91;5278684;28;20078;-71
2023/12/13 20:19:34;;;;;;;39.87;28.27;;;;;;;7.95;100.00;100314.81;5278085;28;20549;-72
2023/12/13 20:22:05;;;;;;;37.47;26.80;;;;;;;8.03;100.00;100319.59;5278769;28;20036;-73
2023/12/13 20:24:37;;;;;;;40.63;27.03;;;;;;;7.97;100.00;100318.16;5268912;28;20105;-70
2023/12/13 20:27:08;;;;;;;38.30;27.77;;;;;;;7.96;100.00;100327.75;5278542;28;20055;-72
2023/12/13 20:29:39;;;;;;;40.67;29.23;;;;;;;7.95;100.00;100338.28;5273882;28;20407;-71
2023/12/13 20:32:13;;;;;;;40.60;27.70;;;;;;;7.92;100.00;100339.28;5283657;28;20051;-71
2023/12/13 20:34:44;;;;;;;40.47;28.13;;;;;;;7.99;100.00;100361.47;5284072;28;20036;-72
2023/12/13 20:37:18;;;;;;;40.90;26.83;;;;;;;8.09;100.00;100350.53;5281632;28;20094;-71
2023/12/13 20:39:49;;;;;;;38.70;27.63;;;;;;;8.05;100.00;100355.06;5284484;28;20033;-70
2023/12/13 20:42:20;;;;;;;36.33;27.00;;;;;;;7.98;100.00;100354.59;5286018;28;20028;-72
2023/12/13 20:44:52;;;;;;;34.07;25.40;;;;;;;8.01;100.00;100366.63;5281886;28;20169;-73
2023/12/13 20:47:23;;;;;;;33.87;25.63;;;;;;;8.02;100.00;100370.06;5291382;28;20028;-72
2023/12/13 20:49:55;;;;;;;37.83;27.47;;;;;;;8.04;100.00;100378.63;5275744;28;20040;-72
2023/12/13 20:52:26;;;;;;;34.47;27.13;;;;;;;8.06;100.00;100376.78;5266893;28;20029;-71
2023/12/13 20:54:57;;;;;;;38.67;29.30;;;;;;;7.99;100.00;100376.28;5280297;28;20045;-71
2023/12/13 20:57:29;;;;;;;39.43;27.80;;;;;;;8.10;100.00;100389.56;5282051;28;20050;-73
2023/12/13 21:00:00;;;;;;;39.60;28.53;;;;;;;8.09;100.00;100387.88;5279594;28;20044;-72
2023/12/13 21:02:32;;;;;;;37.30;27.50;;;;;;;8.10;100.00;100396.53;5277397;28;20049;-73
2023/12/13 21:05:05;;;;;;;38.40;28.23;;;;;;;8.17;100.00;100397.06;5278678;28;20165;-73
2023/12/13 21:07:36;;;;;;;37.27;28.23;;;;;;;8.13;100.00;100401.59;5265766;28;20025;-73
2023/12/13 21:10:08;;;;;;;39.30;29.50;;;;;;;8.03;100.00;100413.47;5265939;28;20449;-74
2023/12/13 21:12:41;;;;;;;40.10;27.63;;;;;;;8.05;100.00;100422.03;5273902;28;20058;-74
2023/12/13 21:15:13;;;;;;;33.72;26.00;;;;;;;8.03;100.00;100409.09;5279644;28;20040;-74
2023/12/13 21:17:44;;;;;;;38.30;27.53;;;;;;;8.17;100.00;100416.13;5283610;28;20021;-70
2023/12/13 21:20:15;;;;;;;36.50;26.13;;;;;;;8.11;100.00;100425.16;5268459;28;20031;-71
2023/12/13 21:22:47;;;;;;;38.50;26.97;;;;;;;8.16;100.00;100435.31;5275471;28;20032;-71
2023/12/13 21:25:18;;;;;;;35.67;27.50;;;;;;;8.06;100.00;100423.72;5279947;28;20035;-71
2023/12/13 21:27:49;;;;;;;32.20;23.83;;;;;;;8.13;100.00;100445.09;5281823;28;20035;-72
2023/12/13 21:30:21;;;;;;;31.90;24.60;;;;;;;8.18;100.00;100445.69;5281028;28;20502;-72
2023/12/13 21:32:52;;;;;;;33.57;24.87;;;;;;;8.19;100.00;100455.16;5276896;28;20103;-70
2023/12/13 21:35:23;;;;;;;31.43;25.93;;;;;;;8.28;100.00;100454.66;5264935;28;20147;-70
2023/12/13 21:37:55;;;;;;;35.80;25.00;;;;;;;8.24;100.00;100463.56;5298807;27;20044;-71
2023/12/13 21:40:26;;;;;;;35.07;25.53;;;;;;;8.08;100.00;100468.84;5273877;28;20029;-69
2023/12/13 21:42:57;;;;;;;36.47;26.03;;;;;;;8.17;100.00;100472.69;5304294;28;20043;-68
2023/12/13 21:45:29;;;;;;;33.87;24.53;;;;;;;8.16;100.00;100482.28;5277812;28;20020;-68
2023/12/13 21:48:00;;;;;;;33.37;23.67;;;;;;;8.17;100.00;100475.31;5276997;28;20044;-69
2023/12/13 21:50:32;;;;;;;33.67;24.50;;;;;;;8.18;100.00;100488.25;5279976;28;20550;-69
2023/12/13 21:53:03;;;;;;;38.73;25.27;;;;;;;8.26;100.00;100494.78;5271807;28;20444;-69
2023/12/13 21:55:35;;;;;;;35.20;25.13;;;;;;;8.20;100.00;100482.97;5269762;28;20065;-68
2023/12/13 21:58:06;;;;;;;33.50;25.70;;;;;;;8.11;100.00;100490.38;5267478;28;20024;-69
2023/12/13 22:00:38;;;;;;;35.27;26.97;;;;;;;8.17;100.00;100499.59;5273708;28;20103;-70
2023/12/13 22:03:10;;;;;;;33.03;25.13;;;;;;;8.18;100.00;100505.66;5259498;28;20025;-69
2023/12/13 22:05:41;;;;;;;35.53;26.80;;;;;;;8.07;100.00;100501.88;5262238;28;20036;-70
2023/12/13 22:08:13;;;;;;;40.63;27.63;;;;;;;8.15;100.00;100513.69;5267010;28;20061;-68
2023/12/13 22:10:49;;;;;;;37.47;27.10;;;;;;;8.16;100.00;100512.72;5268814;28;20032;-68
2023/12/13 22:13:20;;;;;;;35.47;27.30;;;;;;;8.13;100.00;100513.75;5277024;28;20043;-68
2023/12/13 22:15:51;;;;;;;37.00;27.20;;;;;;;8.11;100.00;100521.66;5266744;28;20110;-71
2023/12/13 22:18:25;;;;;;;37.40;27.47;;;;;;;8.19;100.00;100523.00;5276154;28;20427;-70
2023/12/13 22:20:57;;;;;;;43.75;28.98;;;;;;;8.14;100.00;100531.09;5267348;28;20535;-71
2023/12/13 22:23:28;;;;;;;39.17;28.33;;;;;;;8.13;100.00;100539.00;5258449;28;20100;-69
2023/12/13 22:25:59;;;;;;;45.40;28.53;;;;;;;8.25;100.00;100547.91;5276856;28;20115;-70
